createdAt,value
2022-11-10T00:04:31.232Z,1001.47
2022-11-10T00:09:31.108Z,1001.54
2022-11-10T00:14:31.040Z,1001.57
2022-11-10T00:19:30.949Z,1001.63
2022-11-10T00:24:30.867Z,1001.71
2022-11-10T00:29:30.912Z,1001.72
2022-11-10T00:34:30.774Z,1001.73
2022-11-10T00:39:32.891Z,1001.73
2022-11-10T00:44:30.781Z,1001.74
2022-11-10T00:49:30.702Z,1001.86
2022-11-10T00:54:30.744Z,1001.94
2022-11-10T00:59:30.565Z,1001.92
2022-11-10T01:04:30.640Z,1001.97
2022-11-10T01:09:30.409Z,1001.99
2022-11-10T01:14:30.345Z,1002.04
2022-11-10T01:19:30.289Z,1002.02
2022-11-10T01:24:30.236Z,1002.17
2022-11-10T01:30:41.566Z,1002.27
2022-11-10T01:35:41.931Z,1002.31
2022-11-10T01:40:42.686Z,1002.42
2022-11-10T01:45:41.657Z,1002.41
2022-11-10T01:50:42.568Z,1002.37
2022-11-10T01:55:41.347Z,1002.40
2022-11-10T02:00:41.331Z,1002.45
2022-11-10T02:05:41.436Z,1002.49
2022-11-10T02:10:41.184Z,1002.52
2022-11-10T02:15:43.594Z,1002.60
2022-11-10T02:20:41.055Z,1002.67
2022-11-10T02:25:42.120Z,1002.78
2022-11-10T02:30:41.288Z,1002.78
2022-11-10T02:35:42.007Z,1002.82
2022-11-10T02:40:41.029Z,1002.78
2022-11-10T02:45:40.905Z,1002.73
2022-11-10T02:50:40.730Z,1002.86
2022-11-10T02:55:40.741Z,1002.87
2022-11-10T03:00:41.879Z,1002.90
2022-11-10T03:05:40.720Z,1002.88
2022-11-10T03:10:46.095Z,1003.11
2022-11-10T03:15:41.986Z,1003.20
2022-11-10T03:20:40.421Z,1003.13
2022-11-10T03:25:40.656Z,1003.08
2022-11-10T03:30:40.313Z,1003.15
2022-11-10T03:35:40.216Z,1003.19
2022-11-10T03:41:12.097Z,1003.17
2022-11-10T03:45:41.139Z,1003.27
2022-11-10T03:50:40.085Z,1003.45
2022-11-10T03:56:12.927Z,1003.52
2022-11-10T04:00:40.181Z,1003.58
2022-11-10T04:05:40.018Z,1003.60
2022-11-10T04:10:39.953Z,1003.60
2022-11-10T04:15:40.230Z,1003.69
2022-11-10T04:20:40.053Z,1003.83
2022-11-10T04:25:39.750Z,1003.92
2022-11-10T04:30:39.675Z,1004.08
2022-11-10T04:35:42.189Z,1004.17
2022-11-10T04:40:45.400Z,1004.18
2022-11-10T04:45:39.919Z,1004.24
2022-11-10T04:50:39.543Z,1004.36
2022-11-10T04:55:39.515Z,1004.39
2022-11-10T05:00:39.387Z,1004.50
2022-11-10T05:05:39.605Z,1004.57
2022-11-10T05:10:39.574Z,1004.59
2022-11-10T05:15:39.736Z,1004.65
2022-11-10T05:20:39.113Z,1004.80
2022-11-10T05:25:39.388Z,1004.83
2022-11-10T05:30:39.154Z,1004.89
2022-11-10T05:35:39.014Z,1004.92
2022-11-10T05:40:39.973Z,1005.00
2022-11-10T05:45:38.919Z,1005.05
2022-11-10T05:50:38.882Z,1005.12
2022-11-10T05:55:38.723Z,1005.17
2022-11-10T06:00:38.725Z,1005.23
2022-11-10T06:05:38.612Z,1005.25
2022-11-10T06:10:38.615Z,1005.23
2022-11-10T06:15:38.573Z,1005.34
2022-11-10T06:20:39.479Z,1005.37
2022-11-10T06:25:38.469Z,1005.47
2022-11-10T06:30:39.424Z,1005.54
2022-11-10T06:35:39.392Z,1005.65
2022-11-10T06:40:38.408Z,1005.74
2022-11-10T06:45:38.302Z,1005.75
2022-11-10T06:50:38.263Z,1005.89
2022-11-10T06:55:38.086Z,1005.96
2022-11-10T07:00:38.247Z,1006.05
2022-11-10T07:05:38.072Z,1006.14
2022-11-10T07:10:37.937Z,1006.21
2022-11-10T07:15:37.928Z,1006.32
2022-11-10T07:20:37.934Z,1006.45
2022-11-10T07:25:37.729Z,1006.49
2022-11-10T07:30:37.696Z,1006.54
2022-11-10T07:35:37.836Z,1006.68
2022-11-10T07:40:37.587Z,1006.70
2022-11-10T07:45:37.810Z,1006.70
2022-11-10T07:50:37.614Z,1006.75
2022-11-10T07:55:37.561Z,1006.89
2022-11-10T08:00:37.445Z,1006.94
2022-11-10T08:05:38.389Z,1006.99
2022-11-10T08:10:37.283Z,1007.09
2022-11-10T08:15:37.251Z,1007.19
2022-11-10T08:20:37.172Z,1007.28
2022-11-10T08:25:37.205Z,1007.49
2022-11-10T08:30:37.098Z,1007.47
2022-11-10T08:35:39.080Z,1007.45
2022-11-10T08:40:36.908Z,1007.47
2022-11-10T08:45:36.869Z,1007.43
2022-11-10T08:50:36.865Z,1007.65
2022-11-10T08:55:36.871Z,1007.63
2022-11-10T09:00:37.764Z,1007.58
2022-11-10T09:05:36.821Z,1007.78
2022-11-10T09:10:36.839Z,1007.74
2022-11-10T09:15:37.628Z,1007.81
2022-11-10T09:20:37.642Z,1007.70
2022-11-10T09:25:36.443Z,1007.75
2022-11-10T09:30:36.457Z,1007.66
2022-11-10T09:35:36.335Z,1007.56
2022-11-10T09:40:36.280Z,1007.74
2022-11-10T09:45:39.115Z,1007.80
2022-11-10T09:50:36.213Z,1007.85
2022-11-10T09:55:36.569Z,1008.02
2022-11-10T10:00:36.037Z,1008.05
2022-11-10T10:05:35.985Z,1008.02
2022-11-10T10:10:35.999Z,1007.98
2022-11-10T10:15:38.017Z,1008.06
2022-11-10T10:20:35.870Z,1008.08
2022-11-10T10:25:35.833Z,1008.04
2022-11-10T10:30:35.764Z,1008.00
2022-11-10T10:35:41.458Z,1008.02
2022-11-10T10:40:36.671Z,1008.14
2022-11-10T10:45:35.612Z,1007.95
2022-11-10T10:50:36.600Z,1007.93
2022-11-10T10:55:35.459Z,1007.93
2022-11-10T11:00:35.559Z,1008.03
2022-11-10T11:05:35.515Z,1008.03
2022-11-10T11:10:35.296Z,1008.04
2022-11-10T11:15:35.237Z,1008.19
2022-11-10T11:20:35.223Z,1008.23
2022-11-10T11:25:35.139Z,1008.33
2022-11-10T11:30:35.200Z,1008.34
2022-11-10T11:35:38.602Z,1008.35
2022-11-10T11:40:35.038Z,1008.38
2022-11-10T11:45:34.970Z,1008.38
2022-11-10T11:50:35.056Z,1008.45
2022-11-10T11:55:34.853Z,1008.46
2022-11-10T12:00:34.797Z,1008.46
2022-11-10T12:05:34.807Z,1008.60
2022-11-10T12:10:37.237Z,1008.69
2022-11-10T12:15:34.628Z,1008.58
2022-11-10T12:20:34.807Z,1008.59
2022-11-10T12:25:34.483Z,1008.59
2022-11-10T12:30:34.610Z,1008.64
2022-11-10T12:35:34.498Z,1008.83
2022-11-10T12:40:36.972Z,1008.80
2022-11-10T12:45:35.332Z,1008.80
2022-11-10T12:50:34.261Z,1008.80
2022-11-10T12:55:34.266Z,1008.81
2022-11-10T13:00:34.203Z,1008.98
2022-11-10T13:05:34.132Z,1009.09
2022-11-10T13:10:34.020Z,1009.11
2022-11-10T13:15:33.963Z,1009.11
2022-11-10T13:20:34.180Z,1009.12
2022-11-10T13:25:33.858Z,1009.13
2022-11-10T13:31:44.096Z,1009.12
2022-11-10T13:36:44.040Z,1009.19
2022-11-10T13:41:44.009Z,1009.18
2022-11-10T13:46:43.995Z,1009.22
2022-11-10T13:51:44.025Z,1009.25
2022-11-10T13:56:43.968Z,1009.15
2022-11-10T14:01:43.863Z,1009.22
2022-11-10T14:06:43.896Z,1009.09
2022-11-10T14:11:49.525Z,1009.18
2022-11-10T14:16:44.606Z,1009.15
2022-11-10T14:21:43.561Z,1009.22
2022-11-10T14:26:43.554Z,1009.18
2022-11-10T14:31:43.512Z,1009.14
2022-11-10T14:36:43.533Z,1009.12
2022-11-10T14:41:43.539Z,1009.25
2022-11-10T14:46:43.366Z,1009.36
2022-11-10T14:51:43.311Z,1009.20
2022-11-10T14:56:43.187Z,1009.34
2022-11-10T15:01:43.214Z,1009.42
2022-11-10T15:06:46.866Z,1009.51
2022-11-10T15:11:43.226Z,1009.44
2022-11-10T15:16:43.146Z,1009.50
2022-11-10T15:21:43.030Z,1009.56
2022-11-10T15:26:42.913Z,1009.63
2022-11-10T15:31:42.994Z,1009.58
2022-11-10T15:36:42.825Z,1009.63
2022-11-10T15:41:42.878Z,1009.66
2022-11-10T15:46:42.658Z,1009.72
2022-11-10T15:51:42.604Z,1009.79
2022-11-10T15:56:42.588Z,1009.68
2022-11-10T16:01:42.539Z,1009.75
2022-11-10T16:06:42.597Z,1009.76
2022-11-10T16:11:42.419Z,1009.82
2022-11-10T16:16:42.333Z,1009.82
2022-11-10T16:21:42.568Z,1009.99
2022-11-10T16:26:42.336Z,1010.12
2022-11-10T16:31:42.284Z,1010.35
2022-11-10T16:36:42.122Z,1010.35
2022-11-10T16:41:44.063Z,1010.47
2022-11-10T16:46:42.111Z,1010.47
2022-11-10T16:51:48.284Z,1010.53
2022-11-10T16:56:42.995Z,1010.44
2022-11-10T17:01:41.943Z,1010.53
2022-11-10T17:06:41.806Z,1010.53
2022-11-10T17:11:41.698Z,1010.61
2022-11-10T17:16:41.714Z,1010.78
2022-11-10T17:21:42.749Z,1010.84
2022-11-10T17:26:41.698Z,1010.85
2022-11-10T17:31:41.671Z,1011.01
2022-11-10T17:36:41.605Z,1011.14
2022-11-10T17:41:41.398Z,1011.23
2022-11-10T17:46:41.330Z,1011.31
2022-11-10T17:51:41.335Z,1011.28
2022-11-10T17:56:41.379Z,1011.34
2022-11-10T18:01:42.266Z,1011.18
2022-11-10T18:06:42.453Z,1011.25
2022-11-10T18:11:41.364Z,1011.14
2022-11-10T18:16:42.240Z,1011.09
2022-11-10T18:21:43.446Z,1011.19
2022-11-10T18:26:40.941Z,1011.23
2022-11-10T18:31:40.923Z,1011.21
2022-11-10T18:36:41.012Z,1011.14
2022-11-10T18:41:40.919Z,1011.23
2022-11-10T18:46:42.118Z,1011.33
2022-11-10T18:51:40.701Z,1011.37
2022-11-10T18:56:40.597Z,1011.39
2022-11-10T19:01:40.867Z,1011.46
2022-11-10T19:06:40.629Z,1011.52
2022-11-10T19:11:40.609Z,1011.65
2022-11-10T19:16:40.587Z,1011.58
2022-11-10T19:21:40.332Z,1011.50
2022-11-10T19:26:40.363Z,1011.55
2022-11-10T19:31:40.412Z,1011.56
2022-11-10T19:36:40.592Z,1011.60
2022-11-10T19:41:40.116Z,1011.56
2022-11-10T19:46:40.078Z,1011.52
2022-11-10T19:51:40.057Z,1011.55
2022-11-10T19:56:40.153Z,1011.65
2022-11-10T20:01:43.176Z,1011.55
2022-11-10T20:06:39.925Z,1011.45
2022-11-10T20:11:39.890Z,1011.65
2022-11-10T20:16:39.718Z,1011.70
2022-11-10T20:21:39.688Z,1011.73
2022-11-10T20:26:39.669Z,1011.66
2022-11-10T20:31:39.691Z,1011.68
2022-11-10T20:36:39.564Z,1011.67
2022-11-10T20:41:39.470Z,1011.68
2022-11-10T20:46:54.429Z,1011.69
2022-11-10T20:51:40.382Z,1011.73
2022-11-10T20:56:39.410Z,1011.79
2022-11-10T21:01:39.275Z,1011.84
2022-11-10T21:06:39.209Z,1011.99
2022-11-10T21:11:39.124Z,1011.93
2022-11-10T21:16:39.128Z,1012.04
2022-11-10T21:21:39.074Z,1012.20
2022-11-10T21:26:38.988Z,1012.21
2022-11-10T21:31:38.916Z,1012.23
2022-11-10T21:36:38.839Z,1012.25
2022-11-10T21:41:38.808Z,1012.26
2022-11-10T21:46:38.728Z,1012.28
2022-11-10T21:51:38.745Z,1012.24
2022-11-10T21:56:38.699Z,1012.35
2022-11-10T22:01:38.671Z,1012.39
2022-11-10T22:06:38.622Z,1012.36
2022-11-10T22:11:38.493Z,1012.35
2022-11-10T22:16:38.424Z,1012.37
2022-11-10T22:21:38.342Z,1012.33
2022-11-10T22:26:38.310Z,1012.35
2022-11-10T22:31:38.260Z,1012.36
2022-11-10T22:36:38.246Z,1012.47
2022-11-10T22:41:38.189Z,1012.55
2022-11-10T22:46:38.107Z,1012.61
2022-11-10T22:51:38.043Z,1012.57
2022-11-10T22:56:37.970Z,1012.63
2022-11-10T23:01:38.006Z,1012.48
2022-11-10T23:06:37.909Z,1012.44
2022-11-10T23:11:37.925Z,1012.53
2022-11-10T23:16:37.839Z,1012.64
2022-11-10T23:21:37.787Z,1012.72
2022-11-10T23:26:37.665Z,1012.70
2022-11-10T23:31:37.574Z,1012.72
2022-11-10T23:36:37.523Z,1012.70
2022-11-10T23:41:37.542Z,1012.63
2022-11-10T23:46:37.524Z,1012.52
2022-11-10T23:51:37.403Z,1012.49
2022-11-10T23:56:37.431Z,1012.58
